Time;durP1;ratioP1;P1;durP2;ratioP2;P2;SDS_P1;SDS_P2;PMS_P1;PMS_P2;Temp;Humidity;BMP_temperature;BMP_pressure;BME280_temperature;BME280_humidity;BME280_pressure;Samples;Min_cycle;Max_cycle;Signal;HPM_P1;HPM_P2
2022/05/29 00:03:08;;;;;;;3.73;2.50;;;;;;;16.71;47.69;98516.41;6952047;28;20256;-78
2022/05/29 00:06:31;;;;;;;4.13;2.90;;;;;;;16.57;48.19;98512.41;6947033;28;20547;-77
2022/05/29 00:09:54;;;;;;;3.13;2.83;;;;;;;16.64;47.86;98494.78;6945503;28;20368;-78
2022/05/29 00:13:15;;;;;;;2.70;2.50;;;;;;;16.30;48.45;98495.06;6947054;28;20205;-77
2022/05/29 00:16:37;;;;;;;3.30;3.00;;;;;;;15.63;51.08;98515.97;6946607;28;20201;-78
2022/05/29 00:19:58;;;;;;;4.57;3.17;;;;;;;15.91;49.87;98496.06;6946042;28;20238;-77
2022/05/29 00:23:20;;;;;;;3.10;2.80;;;;;;;16.11;49.81;98493.69;6946016;28;20270;-78
2022/05/29 00:26:43;;;;;;;5.23;2.80;;;;;;;16.21;49.68;98491.16;6946031;28;20556;-77
2022/05/29 00:30:07;;;;;;;4.43;2.50;;;;;;;16.23;49.97;98495.22;6945252;28;20249;-79
2022/05/29 00:33:28;;;;;;;3.70;3.00;;;;;;;15.51;51.12;98498.09;6946123;28;20205;-78
2022/05/29 00:36:50;;;;;;;4.37;2.90;;;;;;;15.78;50.88;98493.66;6945777;28;20220;-77
2022/05/29 00:40:29;;;;;;;3.30;2.70;;;;;;;15.76;50.30;98499.34;6945658;28;20293;-77
2022/05/29 00:44:08;;;;;;;5.17;2.50;;;;;;;15.65;50.99;98486.66;6946475;28;20274;-78
2022/05/29 00:47:29;;;;;;;4.33;3.03;;;;;;;15.73;50.51;98466.38;6946693;28;20665;-77
2022/05/29 00:50:53;;;;;;;3.50;2.60;;;;;;;16.09;50.32;98484.94;6945921;28;20274;-78
2022/05/29 00:54:16;;;;;;;2.50;2.30;;;;;;;15.23;51.79;98479.84;6946690;28;20299;-77
2022/05/29 00:57:39;;;;;;;2.70;2.50;;;;;;;15.80;50.46;98489.63;6946045;28;20235;-78
2022/05/29 01:01:03;;;;;;;3.87;2.80;;;;;;;15.99;50.40;98479.34;6944650;28;20329;-78
2022/05/29 01:04:25;;;;;;;3.97;2.93;;;;;;;16.21;48.99;98477.53;6945168;28;20228;-78
2022/05/29 01:07:49;;;;;;;2.93;2.63;;;;;;;15.58;50.35;98466.94;6945352;28;20208;-78
2022/05/29 01:11:23;;;;;;;2.60;2.40;;;;;;;15.69;50.14;98467.97;6945616;28;20227;-78
2022/05/29 01:14:51;;;;;;;3.27;2.53;;;;;;;16.29;49.23;98471.66;6945678;28;20284;-78
2022/05/29 01:18:23;;;;;;;5.00;2.90;;;;;;;16.43;48.96;98472.97;6945021;28;20254;-78
2022/05/29 01:21:59;;;;;;;3.43;2.40;;;;;;;16.35;48.51;98463.31;6950150;28;20275;-77
2022/05/29 01:25:38;;;;;;;2.87;2.60;;;;;;;15.73;50.84;98455.50;6951106;28;20219;-78
2022/05/29 01:29:02;;;;;;;4.33;2.57;;;;;;;15.74;50.99;98438.97;6950296;28;20280;-77
2022/05/29 01:32:29;;;;;;;3.70;2.73;;;;;;;16.32;49.68;98461.09;6950958;28;20740;-78
2022/05/29 01:35:55;;;;;;;5.23;3.03;;;;;;;16.27;49.19;98457.50;6950196;28;20200;-78
2022/05/29 01:39:22;;;;;;;3.47;2.50;;;;;;;16.25;49.58;98459.63;6949747;28;20734;-78
2022/05/29 01:42:46;;;;;;;5.73;2.70;;;;;;;15.98;50.26;98448.59;6950677;28;20191;-78
2022/05/29 01:46:16;;;;;;;4.67;2.70;;;;;;;16.11;51.88;98442.00;6950463;28;20588;-78
2022/05/29 01:49:41;;;;;;;2.63;2.43;;;;;;;15.95;51.81;98434.69;6949687;28;20266;-78
2022/05/29 01:53:09;;;;;;;2.90;2.60;;;;;;;16.27;52.76;98427.56;6950544;28;20280;-77
2022/05/29 01:56:34;;;;;;;4.37;2.93;;;;;;;16.41;51.71;98420.72;6950103;28;20213;-78
2022/05/29 01:59:59;;;;;;;9.47;3.00;;;;;;;16.36;52.03;98434.22;6948744;28;20324;-78
2022/05/29 02:03:30;;;;;;;3.53;2.67;;;;;;;15.91;53.55;98414.50;6950023;28;20318;-78
2022/05/29 02:10:34;;;;;;;2.93;2.63;;;;;;;16.01;53.71;98391.03;6949618;28;20302;-78
2022/05/29 02:14:00;;;;;;;7.53;3.30;;;;;;;16.17;54.10;98401.03;6950259;28;20288;-77
2022/05/29 02:17:25;;;;;;;5.00;2.70;;;;;;;16.07;54.15;98400.06;6949825;28;20591;-77
2022/05/29 02:20:51;;;;;;;3.57;2.40;;;;;;;15.97;53.23;98375.44;6949464;28;20250;-78
2022/05/29 02:24:14;;;;;;;3.90;2.80;;;;;;;16.10;53.01;98399.56;6949759;28;20216;-77
2022/05/29 02:27:40;;;;;;;5.40;2.63;;;;;;;16.07;53.15;98395.47;6949108;28;20212;-77
2022/05/29 02:31:11;;;;;;;4.60;2.87;;;;;;;15.90;54.79;98397.38;6948528;28;20275;-78
2022/05/29 02:34:34;;;;;;;4.07;3.07;;;;;;;15.31;55.81;98381.69;6949450;28;20202;-78
2022/05/29 02:38:02;;;;;;;5.63;3.03;;;;;;;14.95;56.60;98384.84;6948630;28;20203;-77
2022/05/29 02:41:32;;;;;;;3.83;2.90;;;;;;;15.83;53.78;98395.88;6949291;28;20707;-78
2022/05/29 02:45:02;;;;;;;3.17;2.90;;;;;;;15.98;53.60;98388.78;6949394;28;20615;-78
2022/05/29 02:48:27;;;;;;;3.03;2.73;;;;;;;15.99;53.54;98395.06;6948124;28;20269;-78
2022/05/29 02:51:52;;;;;;;4.13;2.73;;;;;;;16.07;52.91;98397.34;6949205;28;20271;-78
2022/05/29 02:55:16;;;;;;;4.00;3.30;;;;;;;15.66;55.73;98389.63;6948596;28;20214;-78
2022/05/29 02:58:39;;;;;;;3.17;2.83;;;;;;;15.96;54.18;98387.38;6947502;28;20312;-78
2022/05/29 03:02:06;;;;;;;3.87;2.90;;;;;;;15.90;54.19;98382.94;6946421;28;20242;-78
2022/05/29 03:05:30;;;;;;;4.90;2.70;;;;;;;16.04;52.72;98378.81;6948828;28;20213;-78
2022/05/29 03:08:59;;;;;;;3.63;2.87;;;;;;;16.06;53.09;98374.78;6948438;28;20328;-78
2022/05/29 03:12:32;;;;;;;6.60;3.07;;;;;;;15.92;53.98;98369.94;6948449;28;20185;-78
2022/05/29 03:16:00;;;;;;;5.93;2.60;;;;;;;15.90;54.43;98367.47;6949911;28;20191;-77
2022/05/29 03:19:30;;;;;;;3.10;2.80;;;;;;;15.92;54.64;98364.50;6949323;28;20719;-78
2022/05/29 03:22:57;;;;;;;3.90;2.53;;;;;;;15.92;55.07;98365.31;6950055;28;20187;-78
2022/05/29 03:26:23;;;;;;;3.70;3.30;;;;;;;15.35;56.01;98357.59;6950091;28;20232;-78
2022/05/29 03:29:50;;;;;;;3.80;3.23;;;;;;;15.55;56.51;98366.06;6949663;28;20297;-78
2022/05/29 03:33:12;;;;;;;2.93;2.67;;;;;;;15.28;57.08;98365.06;6949975;28;20228;-78
2022/05/29 03:36:33;;;;;;;3.80;3.40;;;;;;;15.57;56.81;98367.47;6949968;28;20640;-78
2022/05/29 03:39:55;;;;;;;3.07;2.50;;;;;;;15.94;54.12;98367.78;6949419;28;20224;-78
2022/05/29 03:43:17;;;;;;;4.40;3.00;;;;;;;15.93;53.43;98366.94;6949810;28;20207;-78
2022/05/29 03:46:40;;;;;;;3.97;3.03;;;;;;;15.78;54.20;98353.16;6949140;28;20603;-78
2022/05/29 03:50:01;;;;;;;4.30;3.40;;;;;;;15.84;54.45;98356.75;6948890;28;20252;-78
2022/05/29 03:53:23;;;;;;;3.20;2.90;;;;;;;15.63;54.66;98357.53;6949104;28;20751;-78
2022/05/29 03:56:45;;;;;;;4.50;3.47;;;;;;;15.91;54.62;98357.41;6948728;28;20211;-78
2022/05/29 04:00:09;;;;;;;4.37;3.47;;;;;;;15.90;53.92;98345.72;6946903;28;20234;-78
2022/05/29 04:03:32;;;;;;;3.80;3.10;;;;;;;15.96;54.13;98362.91;6943360;28;20219;-78
2022/05/29 04:06:54;;;;;;;3.00;2.70;;;;;;;15.87;54.24;98365.22;6920681;28;20220;-78
2022/05/29 04:14:10;;;;;;;3.43;2.90;;;;;;;16.03;54.30;98350.78;6864103;28;20197;-78
2022/05/29 04:17:31;;;;;;;5.23;3.60;;;;;;;15.88;54.49;98323.41;6871418;28;20667;-78
2022/05/29 04:20:54;;;;;;;5.37;3.00;;;;;;;16.02;53.47;98315.69;6920896;28;20634;-78
2022/05/29 04:24:19;;;;;;;3.70;3.40;;;;;;;15.99;54.25;98363.22;6920972;28;20233;-78
2022/05/29 04:27:40;;;;;;;4.73;3.10;;;;;;;15.86;54.99;98365.50;6920217;28;20200;-78
2022/05/29 04:31:02;;;;;;;3.37;3.07;;;;;;;16.04;54.26;98357.88;6920749;28;20709;-78
2022/05/29 04:34:24;;;;;;;3.57;2.73;;;;;;;16.00;54.66;98359.47;6920964;28;20368;-78
2022/05/29 04:37:48;;;;;;;3.70;3.13;;;;;;;16.02;54.83;98343.72;6920607;28;20235;-78
2022/05/29 04:41:10;;;;;;;6.60;3.37;;;;;;;16.20;54.35;98354.28;6920755;28;20233;-78
2022/05/29 04:44:32;;;;;;;3.37;3.03;;;;;;;16.10;54.38;98345.19;6920715;28;20296;-77
2022/05/29 04:47:54;;;;;;;3.63;3.10;;;;;;;15.50;56.28;98355.13;6919853;28;20247;-78
2022/05/29 04:51:16;;;;;;;5.27;3.67;;;;;;;15.29;56.57;98378.38;6920621;28;20247;-78
2022/05/29 04:54:40;;;;;;;3.60;3.30;;;;;;;15.33;57.85;98354.31;6919632;28;20214;-77
2022/05/29 04:58:02;;;;;;;3.77;3.43;;;;;;;15.58;57.82;98355.53;6919418;28;20683;-78
2022/05/29 05:01:24;;;;;;;4.90;3.50;;;;;;;16.01;56.14;98369.25;6918888;28;20322;-77
2022/05/29 05:04:46;;;;;;;4.23;3.50;;;;;;;15.89;56.44;98362.28;6920288;28;20254;-77
2022/05/29 05:08:08;;;;;;;4.37;3.80;;;;;;;15.83;56.32;98357.84;6919942;28;20212;-78
2022/05/29 05:11:31;;;;;;;4.77;3.50;;;;;;;15.80;56.59;98325.72;6919781;28;20231;-78
2022/05/29 05:14:53;;;;;;;4.57;3.50;;;;;;;16.57;55.30;98363.50;6919891;28;20212;-78
2022/05/29 05:18:15;;;;;;;4.00;3.70;;;;;;;15.61;57.51;98321.59;6919725;28;20210;-78
2022/05/29 05:21:36;;;;;;;4.93;3.77;;;;;;;15.97;58.50;98373.53;6920547;28;20353;-78
2022/05/29 05:24:58;;;;;;;3.80;3.50;;;;;;;15.84;57.59;98348.59;6921041;28;20261;-78
2022/05/29 05:28:21;;;;;;;4.00;3.60;;;;;;;16.20;56.30;98367.91;6919866;28;20209;-78
2022/05/29 05:31:42;;;;;;;3.43;3.13;;;;;;;16.25;55.68;98361.69;6919899;28;20215;-78
2022/05/29 05:35:07;;;;;;;4.37;3.20;;;;;;;16.52;54.13;98340.88;6920311;28;20206;-77
2022/05/29 05:38:30;;;;;;;5.13;3.40;;;;;;;16.75;53.72;98359.66;6919159;28;20200;-78
2022/05/29 05:41:52;;;;;;;3.83;2.93;;;;;;;16.71;53.64;98356.63;6919735;28;20278;-77
2022/05/29 05:45:15;;;;;;;6.70;3.50;;;;;;;16.37;55.24;98351.50;6919175;28;20228;-77
2022/05/29 05:48:38;;;;;;;5.27;3.20;;;;;;;16.67;54.04;98343.75;6918646;28;20231;-77
2022/05/29 05:52:00;;;;;;;4.93;3.23;;;;;;;16.53;54.90;98345.22;6919064;28;20209;-77
2022/05/29 05:55:22;;;;;;;4.03;3.03;;;;;;;16.16;54.88;98346.91;6919226;28;20214;-77
2022/05/29 05:58:44;;;;;;;5.43;3.70;;;;;;;15.68;57.09;98344.84;6918321;28;20219;-77
2022/05/29 06:02:09;;;;;;;6.07;3.20;;;;;;;15.46;57.33;98354.78;6918826;28;20212;-77
2022/05/29 06:05:30;;;;;;;5.10;4.13;;;;;;;15.81;57.05;98327.38;6937324;28;20238;-77
2022/05/29 06:08:52;;;;;;;5.00;3.90;;;;;;;16.35;57.25;98356.41;6950186;28;20253;-78
2022/05/29 06:12:14;;;;;;;3.80;2.80;;;;;;;15.86;55.23;98358.16;6952201;28;20689;-77
2022/05/29 06:15:36;;;;;;;5.03;3.50;;;;;;;16.24;54.78;98371.78;6951652;28;20259;-77
2022/05/29 06:18:59;;;;;;;3.57;3.23;;;;;;;16.34;55.08;98358.28;6951025;28;20223;-77
2022/05/29 06:22:21;;;;;;;3.93;2.83;;;;;;;16.83;52.10;98361.91;6951158;28;20209;-77
2022/05/29 06:25:43;;;;;;;4.67;2.50;;;;;;;17.15;50.25;98360.88;6950692;28;20234;-78
2022/05/29 06:29:04;;;;;;;5.43;3.23;;;;;;;16.52;52.42;98349.84;6950473;28;20591;-77
2022/05/29 06:32:26;;;;;;;5.53;3.37;;;;;;;16.95;53.56;98357.13;6950820;28;20308;-77
2022/05/29 06:35:49;;;;;;;4.47;2.90;;;;;;;16.77;53.42;98362.94;6951038;28;20207;-78
2022/05/29 06:39:10;;;;;;;3.73;2.83;;;;;;;16.85;52.84;98370.63;6949804;28;20226;-77
2022/05/29 06:42:32;;;;;;;4.13;3.00;;;;;;;17.04;51.98;98363.78;6950941;28;20312;-77
2022/05/29 06:45:57;;;;;;;5.10;3.10;;;;;;;17.43;51.63;98368.00;6950734;28;20234;-77
2022/05/29 06:49:18;;;;;;;3.83;2.67;;;;;;;17.63;51.23;98368.97;6950257;28;20225;-78
2022/05/29 06:52:41;;;;;;;4.30;2.90;;;;;;;18.71;48.46;98365.56;6951246;28;20300;-77
2022/05/29 06:56:03;;;;;;;3.53;2.87;;;;;;;19.17;47.34;98356.41;6950385;28;20252;-78
2022/05/29 06:59:25;;;;;;;3.00;2.43;;;;;;;18.60;46.60;98377.53;6949844;28;20229;-78
2022/05/29 07:10:08;;;;;;;5.00;2.37;;;;;;;19.11;43.34;98368.44;6949403;28;20214;-77
2022/05/29 07:13:31;;;;;;;3.97;2.93;;;;;;;18.70;45.38;98369.41;6949450;28;20272;-78
2022/05/29 07:16:52;;;;;;;2.83;2.60;;;;;;;18.27;45.81;98377.91;6949715;28;20746;-78
2022/05/29 07:20:16;;;;;;;3.87;2.17;;;;;;;18.93;44.91;98377.94;6948749;28;20598;-78
2022/05/29 07:23:38;;;;;;;2.60;2.40;;;;;;;19.04;44.79;98384.28;6948458;28;20683;-78
2022/05/29 07:27:01;;;;;;;3.80;2.60;;;;;;;18.89;43.09;98373.28;6950079;28;20219;-78
2022/05/29 07:30:22;;;;;;;3.20;2.70;;;;;;;18.54;45.32;98370.41;6949499;28;20231;-78
2022/05/29 07:33:44;;;;;;;3.67;2.40;;;;;;;17.86;45.94;98365.09;6949131;28;20211;-78
2022/05/29 07:37:07;;;;;;;3.43;2.20;;;;;;;18.80;43.19;98385.84;6949856;28;20742;-78
2022/05/29 07:40:28;;;;;;;3.67;2.57;;;;;;;17.61;46.82;98373.88;6948161;28;20227;-78
2022/05/29 07:43:52;;;;;;;4.77;2.60;;;;;;;16.74;48.91;98377.06;6948563;28;20221;-78
2022/05/29 07:47:13;;;;;;;3.47;2.30;;;;;;;19.30;44.66;98364.13;6948888;28;20227;-78
2022/05/29 07:50:35;;;;;;;4.33;2.20;;;;;;;20.51;41.21;98371.97;6948028;28;20231;-78
2022/05/29 07:53:58;;;;;;;3.83;2.23;;;;;;;20.49;39.34;98344.03;6949121;28;20251;-78
2022/05/29 07:57:19;;;;;;;4.60;2.00;;;;;;;21.23;38.83;98361.22;6949093;28;20710;-78
2022/05/29 08:00:43;;;;;;;3.43;2.00;;;;;;;20.19;39.28;98368.78;6947563;28;20226;-78
2022/05/29 08:04:05;;;;;;;3.77;2.30;;;;;;;21.07;38.94;98364.34;6948472;28;20693;-78
2022/05/29 08:07:26;;;;;;;3.63;2.40;;;;;;;20.05;41.30;98386.81;6948169;28;20745;-78
2022/05/29 08:10:48;;;;;;;4.30;2.20;;;;;;;19.98;39.99;98339.75;6948075;28;20227;-78
2022/05/29 08:14:10;;;;;;;3.73;2.17;;;;;;;18.25;42.44;98364.50;6948818;28;20300;-78
2022/05/29 08:17:33;;;;;;;3.10;2.20;;;;;;;18.55;42.26;98393.88;6948342;28;20261;-78
2022/05/29 08:20:55;;;;;;;2.40;2.10;;;;;;;18.65;43.02;98364.75;6948012;28;20314;-78
2022/05/29 08:31:46;;;;;;;3.30;2.03;;;;;;;19.06;41.21;98371.97;6947519;28;20200;-77
2022/05/29 08:35:09;;;;;;;4.83;2.30;;;;;;;19.31;39.86;98368.50;6959084;28;20209;-78
2022/05/29 08:38:31;;;;;;;3.17;1.80;;;;;;;19.00;41.15;98361.28;6974725;28;20217;-78
2022/05/29 08:41:54;;;;;;;5.03;2.30;;;;;;;19.23;39.04;98349.91;6975705;28;20583;-77
2022/05/29 08:45:18;;;;;;;6.07;2.57;;;;;;;18.48;39.92;98383.22;6975557;28;20717;-78
2022/05/29 08:48:40;;;;;;;4.67;2.00;;;;;;;18.69;39.42;98365.84;6975461;28;20253;-78
2022/05/29 08:52:14;;;;;;;4.80;2.03;;;;;;;18.43;40.98;98369.56;6974931;28;20289;-78
2022/05/29 08:55:45;;;;;;;5.47;2.50;;;;;;;19.02;39.76;98364.56;6975910;28;20202;-78
2022/05/29 08:59:10;;;;;;;3.37;2.10;;;;;;;18.98;38.82;98360.75;6974851;28;20222;-78
2022/05/29 09:02:40;;;;;;;5.10;2.10;;;;;;;18.54;39.56;98324.84;6974082;28;20697;-78
2022/05/29 09:06:05;;;;;;;2.83;1.90;;;;;;;19.04;39.49;98354.22;6975620;28;20574;-78
2022/05/29 09:09:32;;;;;;;2.53;2.33;;;;;;;18.48;39.11;98366.84;6973831;28;20324;-78
2022/05/29 09:12:55;;;;;;;3.40;2.23;;;;;;;18.04;39.47;98330.00;6975509;28;20539;-78
2022/05/29 09:16:18;;;;;;;5.40;2.63;;;;;;;18.77;38.17;98321.63;6979962;28;20229;-78
2022/05/29 09:19:47;;;;;;;4.43;2.20;;;;;;;19.17;37.76;98364.63;6974572;28;20713;-78
2022/05/29 09:23:14;;;;;;;3.57;2.07;;;;;;;19.23;38.17;98360.84;6975462;28;20295;-78
2022/05/29 09:26:39;;;;;;;4.87;2.53;;;;;;;18.21;40.48;98366.13;6975850;28;20265;-78
2022/05/29 09:30:00;;;;;;;5.83;2.90;;;;;;;18.47;40.74;98337.91;6975444;28;20272;-78
2022/05/29 09:33:24;;;;;;;3.67;2.23;;;;;;;18.47;40.65;98370.69;6976252;28;20573;-78
2022/05/29 09:36:52;;;;;;;5.27;2.50;;;;;;;17.88;41.70;98376.53;6975968;28;20216;-77
2022/05/29 09:40:18;;;;;;;7.80;2.40;;;;;;;16.80;43.21;98385.03;6976101;28;20237;-78
2022/05/29 09:43:41;;;;;;;4.80;2.23;;;;;;;16.79;42.99;98371.66;6981243;28;20265;-78
2022/05/29 09:50:47;;;;;;;2.60;2.40;;;;;;;16.60;46.13;98403.84;6979769;28;20224;-77
2022/05/29 09:54:10;;;;;;;7.43;2.43;;;;;;;16.13;46.84;98416.22;6980419;28;20213;-78
2022/05/29 09:57:39;;;;;;;4.70;2.17;;;;;;;15.43;51.14;98409.66;6979339;28;20202;-78
2022/05/29 10:01:04;;;;;;;6.37;2.20;;;;;;;16.81;47.19;98416.59;6978945;28;20245;-78
2022/05/29 10:04:38;;;;;;;2.80;2.20;;;;;;;16.48;48.57;98411.31;6980972;28;20212;-78
2022/05/29 10:08:17;;;;;;;3.07;2.20;;;;;;;15.84;50.70;98405.69;6979634;28;20264;-78
2022/05/29 10:11:40;;;;;;;3.37;1.97;;;;;;;15.08;51.22;98427.13;6979635;28;20226;-77
2022/05/29 10:15:02;;;;;;;3.27;2.33;;;;;;;14.56;53.56;98433.69;6980528;28;20294;-77
2022/05/29 10:18:35;;;;;;;5.90;2.30;;;;;;;16.16;52.42;98434.75;6979941;28;20877;-77
2022/05/29 10:21:57;;;;;;;3.20;2.30;;;;;;;16.43;52.04;98427.56;6979384;28;20216;-78
2022/05/29 10:25:22;;;;;;;4.63;2.63;;;;;;;16.14;52.50;98434.19;6978853;28;20216;-78
2022/05/29 10:28:44;;;;;;;4.57;2.77;;;;;;;16.24;52.65;98428.06;6978850;28;20235;-78
2022/05/29 10:32:07;;;;;;;4.57;2.70;;;;;;;16.54;53.04;98434.78;6979058;28;20213;-78
2022/05/29 10:35:32;;;;;;;8.00;3.00;;;;;;;16.10;50.73;98429.50;6978822;28;20220;-78
2022/05/29 10:39:06;;;;;;;4.47;2.70;;;;;;;15.87;54.39;98443.28;6978576;28;20232;-78
2022/05/29 10:42:40;;;;;;;6.17;2.67;;;;;;;15.80;54.04;98448.06;6950369;28;20208;-78
2022/05/29 10:46:04;;;;;;;6.47;2.93;;;;;;;15.48;54.18;98452.38;6950925;28;20227;-78
2022/05/29 10:49:30;;;;;;;5.47;2.97;;;;;;;15.63;53.70;98452.66;6950337;28;20263;-78
2022/05/29 10:53:01;;;;;;;5.70;3.10;;;;;;;15.68;55.50;98450.03;6949779;28;20214;-78
2022/05/29 10:56:31;;;;;;;6.80;3.20;;;;;;;15.90;55.34;98454.47;6950995;28;20638;-78
2022/05/29 11:00:05;;;;;;;5.37;2.50;;;;;;;16.03;51.59;98447.84;6947855;28;20254;-78
2022/05/29 11:03:50;;;;;;;3.77;2.40;;;;;;;16.82;51.23;98447.41;6948368;28;20666;-78
2022/05/29 11:07:27;;;;;;;3.60;2.27;;;;;;;16.59;49.92;98436.75;6950431;28;20238;-78
2022/05/29 11:10:57;;;;;;;1.90;1.70;;;;;;;17.03;49.37;98428.31;6949587;28;20224;-77
2022/05/29 11:14:42;;;;;;;3.17;2.30;;;;;;;17.14;49.38;98430.09;6949620;28;20200;-78
2022/05/29 11:18:35;;;;;;;3.80;2.20;;;;;;;16.99;49.84;98439.97;6949016;28;20208;-78
2022/05/29 11:22:06;;;;;;;3.47;1.83;;;;;;;16.67;51.99;98426.25;6933363;28;20287;-78
2022/05/29 11:25:37;;;;;;;4.13;2.53;;;;;;;16.57;53.73;98431.56;6949693;28;20195;-78
2022/05/29 11:29:15;;;;;;;3.20;2.33;;;;;;;16.53;53.35;98429.59;6948422;28;20618;-78
2022/05/29 11:32:58;;;;;;;4.13;2.77;;;;;;;16.28;55.10;98434.66;6949375;28;20183;-78
2022/05/29 11:36:34;;;;;;;2.97;2.53;;;;;;;16.26;54.70;98429.47;6949525;28;20388;-79
2022/05/29 11:40:00;;;;;;;3.70;2.70;;;;;;;16.51;53.49;98451.59;6948440;28;20274;-78
2022/05/29 11:43:25;;;;;;;6.07;3.00;;;;;;;16.26;55.29;98448.50;6948560;28;20672;-77
2022/05/29 11:54:15;;;;;;;3.77;2.40;;;;;;;16.09;53.08;98458.56;6949357;28;20627;-78
2022/05/29 11:57:41;;;;;;;6.53;2.53;;;;;;;16.33;52.98;98454.59;6948956;28;20330;-78
2022/05/29 12:01:07;;;;;;;3.67;3.00;;;;;;;15.48;55.05;98446.94;6948467;28;20731;-77
2022/05/29 12:04:33;;;;;;;6.47;2.83;;;;;;;16.10;56.18;98438.47;6948765;28;20699;-78
2022/05/29 12:08:00;;;;;;;4.33;2.40;;;;;;;16.50;54.34;98439.09;6947650;28;20254;-77
2022/05/29 12:11:32;;;;;;;4.43;3.10;;;;;;;16.41;56.38;98420.72;6948117;28;20231;-78
2022/05/29 12:14:56;;;;;;;4.77;2.50;;;;;;;17.18;55.03;98439.41;6948610;28;20293;-78
2022/05/29 12:18:19;;;;;;;4.63;2.50;;;;;;;16.76;55.52;98404.84;6947423;28;20228;-77
2022/05/29 12:21:47;;;;;;;4.07;2.70;;;;;;;16.66;55.40;98419.16;6948454;28;20199;-77
2022/05/29 12:25:23;;;;;;;3.23;2.40;;;;;;;16.89;55.00;98415.34;6948323;28;20349;-77
2022/05/29 12:28:48;;;;;;;1.90;1.80;;;;;;;17.45;51.52;98387.66;6947627;28;20239;-77
2022/05/29 12:32:14;;;;;;;3.80;1.80;;;;;;;17.79;49.35;98410.81;6949583;28;20695;-77
2022/05/29 12:35:39;;;;;;;2.40;1.97;;;;;;;17.52;49.41;98388.25;6948907;28;20194;-77
2022/05/29 12:39:07;;;;;;;4.10;2.00;;;;;;;17.63;50.97;98388.06;6947613;28;20699;-78
2022/05/29 12:42:50;;;;;;;1.83;1.73;;;;;;;18.08;48.63;98390.31;6948560;28;20184;-78
2022/05/29 12:46:24;;;;;;;3.63;1.80;;;;;;;18.37;47.30;98388.88;6948766;28;20779;-78
2022/05/29 12:50:25;;;;;;;1.97;1.60;;;;;;;17.29;45.46;98385.81;6948414;28;20384;-78
2022/05/29 12:54:17;;;;;;;1.60;1.50;;;;;;;16.53;45.98;98380.59;6927910;28;20206;-78
2022/05/29 12:57:53;;;;;;;1.60;1.50;;;;;;;16.76;46.49;98392.03;6948434;28;20203;-78
2022/05/29 13:01:24;;;;;;;1.77;1.67;;;;;;;16.73;47.30;98369.94;6947384;28;20651;-78
2022/05/29 13:05:05;;;;;;;4.10;1.67;;;;;;;16.62;48.14;98370.91;6948948;28;20206;-78
2022/05/29 13:08:46;;;;;;;1.63;1.50;;;;;;;16.65;46.26;98373.13;6948041;28;20211;-78
2022/05/29 13:12:20;;;;;;;2.13;1.70;;;;;;;17.52;46.10;98361.81;6948538;28;20336;-78
2022/05/29 13:15:43;;;;;;;3.00;1.50;;;;;;;17.68;45.77;98368.22;6949631;28;20209;-78
2022/05/29 13:19:17;;;;;;;1.50;1.40;;;;;;;18.34;45.32;98351.22;6953401;28;20250;-78
2022/05/29 13:22:50;;;;;;;1.67;1.57;;;;;;;18.06;43.30;98382.41;6953743;28;20195;-77
2022/05/29 13:26:19;;;;;;;3.73;1.73;;;;;;;18.53;42.69;98385.16;6953696;28;20219;-78
2022/05/29 13:29:44;;;;;;;5.07;1.80;;;;;;;18.90;43.37;98374.91;6952793;28;20249;-78
2022/05/29 13:33:39;;;;;;;3.37;1.83;;;;;;;19.50;42.24;98364.13;6952683;28;20215;-78
2022/05/29 13:37:04;;;;;;;2.80;2.00;;;;;;;18.81;43.62;98344.56;6952960;28;20203;-78
2022/05/29 13:40:42;;;;;;;1.93;1.70;;;;;;;18.35;43.78;98371.97;6951913;28;20278;-78
2022/05/29 13:44:29;;;;;;;4.73;2.40;;;;;;;19.35;41.49;98353.19;6952136;28;20192;-78
2022/05/29 13:48:07;;;;;;;2.57;1.77;;;;;;;18.77;41.69;98361.78;6955962;28;20219;-78
2022/05/29 13:51:31;;;;;;;4.93;2.13;;;;;;;19.45;42.83;98340.34;6952510;28;20320;-78
2022/05/29 13:55:00;;;;;;;3.77;1.50;;;;;;;19.61;42.65;98338.44;6951930;28;20214;-79
2022/05/29 14:05:56;;;;;;;1.97;1.83;;;;;;;17.85;45.50;98334.25;6951724;28;20203;-78
2022/05/29 14:09:37;;;;;;;3.10;1.70;;;;;;;19.79;40.59;98324.19;6950997;28;20223;-79
2022/05/29 14:13:13;;;;;;;2.63;1.63;;;;;;;19.58;42.68;98303.44;6951724;28;20580;-79
2022/05/29 14:16:41;;;;;;;4.20;1.90;;;;;;;19.85;41.26;98325.81;6950884;28;20599;-78
2022/05/29 14:20:14;;;;;;;4.80;2.03;;;;;;;19.94;42.49;98310.50;6949382;28;20649;-78
2022/05/29 14:23:53;;;;;;;3.20;2.00;;;;;;;20.33;40.37;98325.22;6951677;28;20203;-79
2022/05/29 14:27:34;;;;;;;3.67;2.03;;;;;;;18.59;42.07;98333.03;6950447;28;20223;-78
2022/05/29 14:31:07;;;;;;;1.70;1.60;;;;;;;19.46;39.79;98305.63;6951546;28;20243;-78
2022/05/29 14:34:39;;;;;;;2.93;2.00;;;;;;;18.81;41.02;98311.00;6951429;28;20203;-78
2022/05/29 14:38:21;;;;;;;2.37;1.63;;;;;;;19.32;40.10;98299.06;6950937;28;20202;-78
2022/05/29 14:41:47;;;;;;;4.57;1.90;;;;;;;19.42;40.56;98321.75;6941566;28;20196;-79
2022/05/29 14:45:11;;;;;;;3.53;1.80;;;;;;;19.60;39.80;98314.91;6926277;28;20190;-78
2022/05/29 14:48:38;;;;;;;2.83;1.80;;;;;;;19.85;39.33;98312.13;6924560;28;20251;-78
2022/05/29 14:52:01;;;;;;;5.40;2.40;;;;;;;19.18;39.29;98312.44;6924559;28;20219;-77
2022/05/29 14:55:26;;;;;;;2.63;1.70;;;;;;;18.91;40.20;98297.34;6923960;28;20204;-76
2022/05/29 14:58:50;;;;;;;2.37;1.70;;;;;;;19.24;40.00;98305.06;6921998;28;20331;-77
2022/05/29 15:02:24;;;;;;;4.33;1.70;;;;;;;19.71;38.93;98308.34;6921608;28;20219;-77
2022/05/29 15:05:50;;;;;;;3.40;1.60;;;;;;;19.67;39.14;98299.03;6922710;28;20215;-77
2022/05/29 15:12:51;;;;;;;3.33;1.90;;;;;;;19.51;38.34;98292.75;6926436;28;20189;-77
2022/05/29 15:16:22;;;;;;;2.67;2.00;;;;;;;19.74;39.16;98307.81;6922953;28;20242;-77
2022/05/29 15:27:11;;;;;;;3.63;2.50;;;;;;;18.67;45.05;98334.41;6923909;28;20208;-77
2022/05/29 15:30:33;;;;;;;2.13;2.03;;;;;;;18.16;46.19;98341.53;6922751;28;20602;-77
2022/05/29 15:34:28;;;;;;;4.07;2.10;;;;;;;17.32;45.81;98303.53;6922716;28;20211;-77
2022/05/29 15:38:02;;;;;;;3.30;1.83;;;;;;;18.20;45.54;98328.16;6922050;28;20266;-77
2022/05/29 15:41:38;;;;;;;3.03;2.40;;;;;;;19.01;42.93;98311.03;6922126;28;20251;-77
2022/05/29 15:45:17;;;;;;;3.03;2.43;;;;;;;19.27;39.74;98310.00;6928229;28;20204;-78
2022/05/29 15:49:14;;;;;;;1.93;1.63;;;;;;;18.35;44.47;98311.91;6945850;28;20234;-78
2022/05/29 15:52:44;;;;;;;1.83;1.60;;;;;;;19.42;37.59;98310.00;6928397;28;20238;-78
2022/05/29 15:56:13;;;;;;;2.53;2.00;;;;;;;19.18;42.90;98319.78;6948806;28;20214;-78
2022/05/29 15:59:46;;;;;;;2.57;1.73;;;;;;;19.47;40.07;98310.00;6947697;28;20266;-78
2022/05/29 16:03:13;;;;;;;2.60;1.70;;;;;;;19.40;43.32;98301.25;6948451;28;20242;-78
2022/05/29 16:06:40;;;;;;;3.57;1.70;;;;;;;19.16;43.31;98279.06;6948286;28;20200;-78
2022/05/29 16:10:07;;;;;;;2.43;1.77;;;;;;;19.11;43.21;98295.44;6948151;28;20506;-78
2022/05/29 16:13:41;;;;;;;1.80;1.70;;;;;;;19.49;41.33;98292.22;6947361;28;20203;-77
2022/05/29 16:17:06;;;;;;;3.03;1.90;;;;;;;19.18;42.51;98278.78;6946604;28;20551;-78
2022/05/29 16:20:37;;;;;;;3.87;2.20;;;;;;;19.44;41.14;98274.97;6948229;28;20321;-78
2022/05/29 16:24:05;;;;;;;2.73;2.10;;;;;;;19.48;38.44;98278.81;6948315;28;20598;-78
2022/05/29 16:27:33;;;;;;;2.60;1.60;;;;;;;19.58;41.68;98263.22;6948227;28;20308;-78
2022/05/29 16:30:58;;;;;;;2.37;2.07;;;;;;;19.46;40.38;98265.41;6947717;28;20245;-78
2022/05/29 16:34:23;;;;;;;2.73;1.77;;;;;;;19.60;41.00;98265.69;6947992;28;20201;-78
2022/05/29 16:49:35;;;;;;;2.13;1.80;;;;;;;18.76;42.64;98275.47;6947981;28;20281;-77
2022/05/29 16:53:10;;;;;;;1.77;1.60;;;;;;;19.10;41.82;98287.53;6947862;28;20252;-76
2022/05/29 16:56:44;;;;;;;2.97;1.80;;;;;;;19.45;39.98;98282.13;6948447;28;20282;-76
2022/05/29 17:00:16;;;;;;;2.13;1.93;;;;;;;19.45;42.38;98273.91;6947102;28;20227;-77
2022/05/29 17:03:50;;;;;;;5.87;2.20;;;;;;;19.33;39.70;98268.72;6957650;28;20590;-77
2022/05/29 17:07:19;;;;;;;3.40;1.60;;;;;;;19.32;40.06;98255.31;6950913;28;20238;-79
2022/05/29 17:10:42;;;;;;;3.93;1.87;;;;;;;19.37;41.10;98268.97;6939417;28;20248;-77
2022/05/29 17:14:10;;;;;;;4.30;2.00;;;;;;;19.39;40.95;98247.69;6946302;28;20192;-77
2022/05/29 17:17:32;;;;;;;2.20;2.00;;;;;;;19.29;41.45;98272.28;6950557;28;20214;-77
2022/05/29 17:21:00;;;;;;;3.80;2.00;;;;;;;19.31;41.62;98270.91;6943402;28;20219;-78